Time;durP1;ratioP1;P1;durP2;ratioP2;P2;SDS_P1;SDS_P2;PMS_P1;PMS_P2;Temp;Humidity;BMP_temperature;BMP_pressure;BME280_temperature;BME280_humidity;BME280_pressure;Samples;Min_cycle;Max_cycle;Signal;HPM_P1;HPM_P2
2021/01/17 00:00:23;;;;;;;17.77;15.63;;;0.30;89.20;;;;;;5025250;28;20233;-92
2021/01/17 00:02:50;;;;;;;18.83;16.63;;;0.30;89.30;;;;;;5023664;28;20224;-92
2021/01/17 00:05:18;;;;;;;20.27;16.70;;;0.30;89.00;;;;;;5023762;28;20186;-92
2021/01/17 00:07:44;;;;;;;20.23;16.37;;;0.30;89.20;;;;;;5023447;28;20621;-92
2021/01/17 00:10:12;;;;;;;23.50;18.30;;;0.40;89.40;;;;;;5023516;28;20221;-92
2021/01/17 00:12:39;;;;;;;21.80;17.73;;;0.40;88.40;;;;;;5024211;28;20185;-92
2021/01/17 00:15:10;;;;;;;20.33;17.10;;;0.40;88.60;;;;;;5024118;28;20181;-92
2021/01/17 00:17:37;;;;;;;21.07;17.00;;;0.30;88.70;;;;;;5022914;28;20202;-91
2021/01/17 00:20:09;;;;;;;20.47;17.33;;;0.40;88.60;;;;;;5007617;28;20212;-92
2021/01/17 00:22:35;;;;;;;21.40;17.20;;;0.50;88.40;;;;;;5022858;28;20185;-93
2021/01/17 00:25:09;;;;;;;23.20;18.37;;;0.50;88.00;;;;;;5006051;28;20209;-92
2021/01/17 00:27:35;;;;;;;24.07;19.27;;;0.50;87.70;;;;;;5022823;28;20174;-91
2021/01/17 00:30:04;;;;;;;22.27;17.40;;;0.40;88.50;;;;;;5008191;28;20266;-92
2021/01/17 00:32:29;;;;;;;24.13;19.17;;;0.40;89.30;;;;;;5024564;28;20248;-91
2021/01/17 00:34:55;;;;;;;22.57;18.80;;;0.40;89.30;;;;;;5006307;28;20205;-92
2021/01/17 00:37:21;;;;;;;24.93;20.13;;;0.40;88.80;;;;;;5022748;28;20681;-92
2021/01/17 00:39:46;;;;;;;21.63;18.00;;;0.40;89.60;;;;;;4989913;28;20209;-92
2021/01/17 00:42:13;;;;;;;25.70;20.50;;;0.40;89.40;;;;;;4989893;28;20193;-93
2021/01/17 00:44:40;;;;;;;26.47;20.80;;;0.40;88.70;;;;;;5005519;28;20181;-93
2021/01/17 00:47:06;;;;;;;22.37;18.50;;;0.30;89.30;;;;;;5006404;28;20208;-93
2021/01/17 00:49:32;;;;;;;23.20;19.17;;;0.30;89.20;;;;;;4989389;28;20247;-92
2021/01/17 00:51:58;;;;;;;21.83;17.33;;;0.40;89.30;;;;;;4973916;28;20194;-92
2021/01/17 00:54:24;;;;;;;21.73;18.43;;;0.40;89.20;;;;;;5006389;28;20186;-91
2021/01/17 00:56:50;;;;;;;27.40;20.87;;;0.40;88.70;;;;;;5006351;28;20228;-91
2021/01/17 00:59:16;;;;;;;25.03;20.23;;;0.30;89.10;;;;;;5006776;28;20222;-92
2021/01/17 01:01:43;;;;;;;27.70;20.33;;;0.30;89.30;;;;;;5006675;28;20205;-92
2021/01/17 01:04:10;;;;;;;25.57;20.90;;;0.20;89.30;;;;;;4990525;28;20190;-93
2021/01/17 01:06:36;;;;;;;26.73;20.37;;;0.30;89.50;;;;;;5004982;28;20190;-92
2021/01/17 01:09:10;;;;;;;24.67;19.23;;;0.20;90.00;;;;;;5005486;28;20214;-91
2021/01/17 01:11:37;;;;;;;25.43;20.43;;;0.30;90.00;;;;;;4988741;28;20640;-92
2021/01/17 01:14:04;;;;;;;25.63;20.23;;;0.30;89.80;;;;;;5023071;28;20185;-93
2021/01/17 01:16:30;;;;;;;25.17;20.23;;;0.30;89.90;;;;;;4989584;28;20226;-93
2021/01/17 01:18:56;;;;;;;23.77;20.43;;;0.40;89.80;;;;;;5006375;28;20208;-91
2021/01/17 01:21:27;;;;;;;23.37;18.53;;;0.30;89.10;;;;;;4989075;28;20217;-91
2021/01/17 01:23:52;;;;;;;24.50;19.20;;;0.50;89.20;;;;;;5022579;28;20182;-91
2021/01/17 01:26:21;;;;;;;25.27;20.27;;;0.60;88.60;;;;;;5005099;28;20270;-91
2021/01/17 01:28:48;;;;;;;26.60;21.30;;;0.50;88.50;;;;;;5022784;28;20193;-93
2021/01/17 01:31:27;;;;;;;24.20;19.60;;;0.50;88.50;;;;;;5020673;28;20181;-92
2021/01/17 01:33:53;;;;;;;25.53;19.13;;;0.40;87.90;;;;;;5028343;28;20653;-92
2021/01/17 01:36:29;;;;;;;24.87;19.80;;;0.40;88.70;;;;;;5004288;28;20185;-92
2021/01/17 01:38:56;;;;;;;26.87;20.67;;;0.50;88.90;;;;;;5021358;28;20205;-92
2021/01/17 01:41:27;;;;;;;29.57;22.40;;;0.50;88.80;;;;;;5004302;28;20583;-92
2021/01/17 01:43:53;;;;;;;26.30;20.53;;;0.50;88.90;;;;;;5007318;28;20174;-91
2021/01/17 01:46:21;;;;;;;28.37;21.47;;;0.40;88.60;;;;;;5027382;28;20184;-92
2021/01/17 01:48:48;;;;;;;27.67;21.40;;;0.30;88.90;;;;;;5025016;28;20191;-92
2021/01/17 01:51:19;;;;;;;30.37;22.43;;;0.30;89.30;;;;;;5006963;28;20208;-91
2021/01/17 01:53:45;;;;;;;29.33;20.70;;;0.30;89.20;;;;;;5002959;28;20197;-91
2021/01/17 01:56:12;;;;;;;26.33;20.93;;;0.50;89.30;;;;;;4984213;28;20201;-92
2021/01/17 01:58:38;;;;;;;26.33;20.03;;;0.50;88.20;;;;;;5006453;28;20210;-93
2021/01/17 02:01:04;;;;;;;26.13;22.10;;;0.50;88.50;;;;;;5011278;28;20233;-92
2021/01/17 02:03:30;;;;;;;27.30;21.17;;;0.40;88.70;;;;;;5037625;28;20192;-92
2021/01/17 02:05:56;;;;;;;27.27;21.13;;;0.40;88.50;;;;;;5015968;28;20193;-93
2021/01/17 02:08:37;;;;;;;27.13;21.43;;;0.40;88.70;;;;;;5029458;28;20200;-93
2021/01/17 02:11:16;;;;;;;27.63;21.00;;;0.40;88.70;;;;;;5002172;28;20625;-92
2021/01/17 02:13:44;;;;;;;29.03;21.07;;;0.40;89.10;;;;;;5029621;28;20644;-93
2021/01/17 02:16:11;;;;;;;25.13;20.47;;;0.40;89.30;;;;;;5015424;28;20216;-93
2021/01/17 02:18:40;;;;;;;27.73;22.20;;;0.50;89.10;;;;;;5023556;28;20307;-93
2021/01/17 02:21:08;;;;;;;28.30;22.60;;;0.50;89.20;;;;;;5042313;28;20260;-93
2021/01/17 02:23:40;;;;;;;25.63;20.23;;;0.50;88.40;;;;;;5007994;28;20184;-93
2021/01/17 02:26:06;;;;;;;22.90;19.50;;;0.50;88.40;;;;;;5024026;28;20181;-93
2021/01/17 02:28:32;;;;;;;26.27;20.33;;;0.50;88.20;;;;;;5007354;28;20304;-93
2021/01/17 02:30:58;;;;;;;25.70;20.50;;;0.60;87.80;;;;;;5024389;28;20330;-93
2021/01/17 02:33:36;;;;;;;24.83;19.60;;;0.50;88.70;;;;;;5032726;28;20173;-93
2021/01/17 02:36:21;;;;;;;25.10;19.40;;;0.60;88.70;;;;;;5004319;28;20193;-93
2021/01/17 02:38:56;;;;;;;24.30;19.13;;;0.70;88.30;;;;;;5013768;28;20225;-93
2021/01/17 02:41:58;;;;;;;26.00;19.60;;;0.70;88.10;;;;;;5021538;28;20663;-93
2021/01/17 02:44:33;;;;;;;22.10;18.47;;;0.80;87.60;;;;;;5021329;28;20227;-93
2021/01/17 02:47:00;;;;;;;22.03;18.03;;;0.80;87.50;;;;;;5022269;28;20204;-93
2021/01/17 02:49:26;;;;;;;23.10;17.97;;;0.80;87.50;;;;;;5023073;28;20253;-93
2021/01/17 02:51:52;;;;;;;23.70;19.63;;;0.80;87.80;;;;;;5021539;28;20185;-93
2021/01/17 02:54:32;;;;;;;22.83;18.70;;;0.80;87.90;;;;;;5004769;28;20190;-93
2021/01/17 02:57:06;;;;;;;23.23;18.40;;;0.80;87.80;;;;;;5020928;28;20197;-92
2021/01/17 02:59:40;;;;;;;21.37;17.77;;;0.80;88.00;;;;;;5021573;28;20205;-92
2021/01/17 03:02:07;;;;;;;22.47;18.90;;;0.80;88.30;;;;;;5021639;28;20173;-92
2021/01/17 03:04:46;;;;;;;23.00;18.03;;;0.80;87.80;;;;;;5020920;28;20182;-92
2021/01/17 03:07:13;;;;;;;23.93;19.17;;;0.80;87.80;;;;;;5021383;28;20190;-91
2021/01/17 03:09:42;;;;;;;20.77;17.63;;;0.90;87.30;;;;;;5008053;28;20220;-93
2021/01/17 03:12:08;;;;;;;21.33;17.47;;;0.80;87.50;;;;;;5024753;28;20226;-92
2021/01/17 03:14:38;;;;;;;22.03;17.47;;;0.90;87.80;;;;;;5023995;28;20182;-92
2021/01/17 03:17:07;;;;;;;20.83;16.97;;;0.80;87.70;;;;;;5024010;28;20217;-92
2021/01/17 03:19:34;;;;;;;22.27;18.10;;;0.70;88.10;;;;;;5025519;28;20205;-92
2021/01/17 03:22:00;;;;;;;21.93;18.27;;;0.50;89.10;;;;;;5024819;28;20225;-93
2021/01/17 03:24:27;;;;;;;21.47;17.43;;;0.70;89.00;;;;;;5025978;28;20150;-92
2021/01/17 03:26:53;;;;;;;19.90;16.27;;;0.60;89.30;;;;;;5025194;28;20190;-92
2021/01/17 03:29:19;;;;;;;21.47;16.93;;;0.70;88.90;;;;;;5007069;28;20197;-93
2021/01/17 03:31:45;;;;;;;20.17;16.90;;;0.70;88.40;;;;;;5024691;28;20430;-93
2021/01/17 03:34:10;;;;;;;23.13;18.43;;;0.70;88.00;;;;;;5026022;28;20649;-92
2021/01/17 03:36:36;;;;;;;21.17;17.90;;;0.60;88.70;;;;;;5023820;28;20209;-92
2021/01/17 03:39:03;;;;;;;22.00;17.40;;;0.60;89.40;;;;;;5007057;28;20225;-92
2021/01/17 03:41:29;;;;;;;21.60;17.60;;;0.70;89.30;;;;;;5025546;28;20170;-92
2021/01/17 03:43:55;;;;;;;21.73;17.60;;;0.80;88.70;;;;;;5023363;28;20221;-92
2021/01/17 03:46:20;;;;;;;18.83;15.40;;;0.70;88.70;;;;;;5008149;28;20193;-92
2021/01/17 03:48:46;;;;;;;20.67;17.57;;;0.70;89.30;;;;;;5023185;28;20265;-91
2021/01/17 03:51:12;;;;;;;18.23;16.30;;;0.70;89.30;;;;;;5024707;28;20552;-92
2021/01/17 03:53:37;;;;;;;20.10;17.53;;;0.60;88.90;;;;;;5023373;28;20182;-92
2021/01/17 03:56:04;;;;;;;21.23;17.27;;;0.60;89.40;;;;;;5007400;28;20190;-92
2021/01/17 03:58:30;;;;;;;20.77;16.90;;;0.60;89.30;;;;;;5023371;28;20206;-92
2021/01/17 04:00:55;;;;;;;19.00;15.40;;;0.70;89.50;;;;;;5024963;28;20200;-93
2021/01/17 04:03:21;;;;;;;22.13;17.53;;;0.70;89.10;;;;;;5007387;28;20201;-93
2021/01/17 04:05:47;;;;;;;23.03;17.23;;;0.80;88.40;;;;;;5023585;28;20243;-93
2021/01/17 04:08:12;;;;;;;21.23;17.13;;;0.80;88.30;;;;;;5023555;28;20189;-93
2021/01/17 04:10:38;;;;;;;19.03;16.57;;;0.80;88.70;;;;;;5008243;28;20197;-93
2021/01/17 04:13:04;;;;;;;24.30;18.83;;;0.80;88.40;;;;;;5027545;28;20655;-93
2021/01/17 04:15:30;;;;;;;24.17;18.73;;;0.80;88.20;;;;;;5026712;28;20599;-92
2021/01/17 04:17:55;;;;;;;24.00;17.80;;;0.80;88.60;;;;;;5007383;28;20213;-93
2021/01/17 04:20:21;;;;;;;21.70;17.77;;;0.70;88.90;;;;;;5022737;28;20201;-93
2021/01/17 04:22:46;;;;;;;23.33;17.63;;;0.80;88.80;;;;;;5023934;28;20185;-93
2021/01/17 04:25:12;;;;;;;23.77;20.10;;;0.80;88.80;;;;;;5024711;28;20206;-93
2021/01/17 04:27:39;;;;;;;22.87;18.80;;;0.60;88.70;;;;;;5024328;28;20201;-93
2021/01/17 04:30:05;;;;;;;23.73;18.03;;;0.70;89.30;;;;;;5024066;28;20225;-92
2021/01/17 04:32:31;;;;;;;21.77;16.77;;;0.80;88.80;;;;;;5008062;28;20193;-94
2021/01/17 04:34:57;;;;;;;22.40;17.93;;;0.80;88.60;;;;;;5028997;28;20253;-93
2021/01/17 04:37:24;;;;;;;22.90;17.70;;;0.80;88.50;;;;;;5035108;28;20201;-92
2021/01/17 04:39:51;;;;;;;21.93;17.83;;;0.80;88.90;;;;;;5033686;28;20770;-93
2021/01/17 04:42:18;;;;;;;20.67;17.23;;;0.80;88.70;;;;;;5007928;28;20280;-93
2021/01/17 04:44:51;;;;;;;20.97;17.67;;;0.90;88.70;;;;;;5000635;28;20174;-93
2021/01/17 04:47:19;;;;;;;24.87;19.20;;;0.90;88.90;;;;;;5038660;28;20157;-93
2021/01/17 04:49:48;;;;;;;24.37;18.60;;;0.80;88.40;;;;;;5034576;28;20189;-93
2021/01/17 04:52:14;;;;;;;22.47;17.27;;;0.60;89.40;;;;;;5006937;28;20177;-93
2021/01/17 04:54:41;;;;;;;22.93;18.30;;;0.60;90.00;;;;;;5004962;28;20209;-93
2021/01/17 04:57:12;;;;;;;23.80;17.70;;;0.40;90.70;;;;;;5005960;28;20279;-93
2021/01/17 05:00:05;;;;;;;21.50;17.43;;;0.40;91.80;;;;;;5030211;28;20193;-93
2021/01/17 05:02:33;;;;;;;19.97;16.53;;;0.50;91.90;;;;;;5025731;28;20544;-93
2021/01/17 05:05:20;;;;;;;20.83;17.17;;;0.60;92.30;;;;;;5006722;28;20173;-93
2021/01/17 05:08:36;;;;;;;22.13;17.53;;;0.60;90.70;;;;;;5007059;28;20186;-93
2021/01/17 05:11:06;;;;;;;20.40;16.80;;;0.60;90.80;;;;;;5019255;28;20201;-93
2021/01/17 05:13:34;;;;;;;18.40;16.37;;;0.40;92.40;;;;;;5006324;28;20356;-93
2021/01/17 05:16:05;;;;;;;22.03;17.13;;;0.50;92.60;;;;;;5006528;28;20189;-93
2021/01/17 05:18:31;;;;;;;19.70;16.27;;;0.50;92.40;;;;;;5023626;28;20184;-93
2021/01/17 05:20:59;;;;;;;18.63;15.50;;;0.50;92.70;;;;;;4989301;28;20178;-93
2021/01/17 05:23:33;;;;;;;19.37;15.83;;;0.50;92.60;;;;;;5007879;28;20185;-93
2021/01/17 05:26:03;;;;;;;17.50;14.37;;;0.40;93.00;;;;;;5007563;28;20190;-93
2021/01/17 05:28:31;;;;;;;20.63;16.70;;;0.50;93.70;;;;;;5022460;28;20291;-93
2021/01/17 05:30:57;;;;;;;17.37;14.47;;;0.30;94.40;;;;;;5024432;28;20158;-93
2021/01/17 05:33:31;;;;;;;20.33;15.93;;;0.40;94.30;;;;;;5023337;28;20231;-94
2021/01/17 05:35:58;;;;;;;17.60;14.37;;;0.30;94.70;;;;;;5024125;28;20177;-93
2021/01/17 05:38:24;;;;;;;16.73;13.10;;;0.40;94.90;;;;;;5011998;28;20217;-93
2021/01/17 05:40:51;;;;;;;16.83;13.57;;;0.40;95.00;;;;;;5022322;28;20607;-93
2021/01/17 05:43:16;;;;;;;15.87;12.83;;;0.40;95.30;;;;;;5023060;28;20185;-93
2021/01/17 05:45:42;;;;;;;16.63;12.60;;;0.30;96.30;;;;;;5003452;28;20206;-93
2021/01/17 05:48:10;;;;;;;18.20;13.37;;;0.20;96.80;;;;;;5002602;28;20605;-93
2021/01/17 05:50:41;;;;;;;15.77;12.77;;;0.30;97.40;;;;;;5003350;28;20201;-93
2021/01/17 05:53:07;;;;;;;14.63;12.10;;;0.30;97.20;;;;;;5019975;28;20242;-93
2021/01/17 05:55:38;;;;;;;14.43;11.83;;;0.30;97.20;;;;;;5005087;28;20197;-93
2021/01/17 05:58:31;;;;;;;13.67;12.13;;;0.40;96.80;;;;;;5004621;28;20244;-93
2021/01/17 06:01:19;;;;;;;15.07;12.80;;;0.40;96.70;;;;;;5023252;28;20347;-93
2021/01/17 06:03:53;;;;;;;13.23;11.57;;;0.40;97.20;;;;;;5023368;28;20176;-93
2021/01/17 06:06:26;;;;;;;14.20;11.57;;;0.40;97.40;;;;;;5023480;28;20165;-93
2021/01/17 06:08:54;;;;;;;15.70;12.43;;;0.30;98.20;;;;;;5023709;28;20210;-93
2021/01/17 06:11:21;;;;;;;15.53;12.80;;;0.20;98.80;;;;;;5022402;28;20197;-93
2021/01/17 06:13:56;;;;;;;14.83;12.40;;;0.30;99.00;;;;;;5023422;28;20221;-93
2021/01/17 06:16:23;;;;;;;16.37;13.27;;;0.40;99.00;;;;;;5023492;28;20648;-93
2021/01/17 06:19:01;;;;;;;15.80;12.60;;;0.30;98.50;;;;;;5022756;28;20185;-92
2021/01/17 06:21:29;;;;;;;14.60;12.63;;;0.40;98.90;;;;;;5021776;28;20659;-92
2021/01/17 06:24:01;;;;;;;15.83;12.83;;;0.40;98.60;;;;;;5021350;28;20181;-92
2021/01/17 06:26:32;;;;;;;13.90;11.97;;;0.50;98.00;;;;;;5023857;28;20557;-92
2021/01/17 06:28:59;;;;;;;15.17;12.73;;;0.60;97.50;;;;;;5023510;28;20204;-93
2021/01/17 06:31:27;;;;;;;15.93;12.63;;;0.50;98.00;;;;;;5023403;28;20182;-93
2021/01/17 06:34:12;;;;;;;15.63;12.63;;;0.50;98.40;;;;;;5022729;28;20265;-92
2021/01/17 06:36:43;;;;;;;15.63;13.40;;;0.40;98.30;;;;;;5006455;28;20240;-92
2021/01/17 06:39:20;;;;;;;17.50;13.20;;;0.40;98.20;;;;;;5021679;28;20243;-93
2021/01/17 06:41:48;;;;;;;15.73;13.43;;;0.50;98.50;;;;;;5023899;28;20284;-92
2021/01/17 06:44:14;;;;;;;17.87;13.60;;;0.40;99.10;;;;;;5025317;28;20543;-93
2021/01/17 06:46:45;;;;;;;15.80;13.63;;;0.40;99.10;;;;;;5027227;28;20229;-93
2021/01/17 06:49:15;;;;;;;19.03;13.50;;;0.30;99.70;;;;;;5026275;28;20190;-93
2021/01/17 06:51:42;;;;;;;16.93;13.07;;;0.30;99.90;;;;;;5026076;28;20299;-93
2021/01/17 06:54:08;;;;;;;17.03;13.23;;;0.30;99.90;;;;;;5026306;28;20177;-93
2021/01/17 06:56:34;;;;;;;16.37;13.13;;;0.30;99.90;;;;;;5026232;28;20189;-93
2021/01/17 06:59:00;;;;;;;16.47;13.37;;;0.30;99.90;;;;;;5025680;28;20204;-93
2021/01/17 07:01:28;;;;;;;16.07;13.30;;;0.20;99.90;;;;;;5024572;28;20261;-92
2021/01/17 07:03:57;;;;;;;17.77;13.37;;;0.20;99.90;;;;;;5011187;28;20285;-92
2021/01/17 07:06:45;;;;;;;15.63;13.23;;;0.20;99.90;;;;;;5024412;28;20208;-93
2021/01/17 07:09:29;;;;;;;17.13;14.23;;;0.30;99.90;;;;;;5026037;28;20249;-92
2021/01/17 07:12:28;;;;;;;17.33;13.67;;;0.40;99.90;;;;;;5026433;28;20170;-92
2021/01/17 07:15:10;;;;;;;15.83;13.00;;;0.40;99.90;;;;;;5013281;28;20200;-93
2021/01/17 07:17:38;;;;;;;16.67;13.07;;;0.40;99.90;;;;;;5006152;28;20214;-93
2021/01/17 07:20:08;;;;;;;16.67;12.83;;;0.40;99.90;;;;;;5010700;28;20253;-93
2021/01/17 07:22:35;;;;;;;17.33;13.60;;;0.30;99.90;;;;;;5039900;28;20173;-93
2021/01/17 07:25:05;;;;;;;16.47;12.73;;;0.30;99.90;;;;;;5011293;28;20197;-92
2021/01/17 07:27:59;;;;;;;16.00;13.63;;;0.30;99.90;;;;;;5027872;28;20209;-93
2021/01/17 07:30:52;;;;;;;17.93;13.67;;;0.40;99.90;;;;;;5038852;28;20240;-92
2021/01/17 07:33:45;;;;;;;15.90;13.30;;;0.50;99.90;;;;;;5036275;28;20204;-93
2021/01/17 07:36:18;;;;;;;15.43;12.03;;;0.50;99.90;;;;;;5023550;28;20208;-93
2021/01/17 07:38:54;;;;;;;17.63;13.47;;;0.50;99.90;;;;;;5025839;28;20263;-93
2021/01/17 07:41:28;;;;;;;17.53;13.00;;;0.40;99.90;;;;;;5025327;28;20188;-92
2021/01/17 07:43:59;;;;;;;15.33;12.13;;;0.40;99.90;;;;;;5027434;28;20262;-92
2021/01/17 07:46:30;;;;;;;17.83;13.40;;;0.50;99.90;;;;;;5027565;28;20253;-92
2021/01/17 07:49:00;;;;;;;16.30;13.20;;;0.50;99.90;;;;;;5025380;28;20201;-92
2021/01/17 07:51:26;;;;;;;15.73;12.60;;;0.40;99.90;;;;;;5026813;28;20182;-93
2021/01/17 07:54:19;;;;;;;17.23;13.30;;;0.40;99.90;;;;;;5027765;28;20201;-92
2021/01/17 07:56:47;;;;;;;14.67;12.13;;;0.40;99.90;;;;;;5025786;28;20252;-93
2021/01/17 07:59:13;;;;;;;15.77;12.03;;;0.30;99.90;;;;;;5026935;28;20212;-93
2021/01/17 08:01:42;;;;;;;14.53;12.00;;;0.40;99.90;;;;;;5010010;28;20185;-94
2021/01/17 08:04:09;;;;;;;14.97;12.13;;;0.40;99.90;;;;;;5027733;28;20189;-93
2021/01/17 08:06:35;;;;;;;15.87;12.33;;;0.50;99.90;;;;;;5025190;28;20176;-94
2021/01/17 08:09:12;;;;;;;15.37;12.70;;;0.50;99.90;;;;;;5026500;28;20567;-92
2021/01/17 08:11:55;;;;;;;17.27;13.30;;;0.50;99.90;;;;;;5025407;28;20174;-93
2021/01/17 08:14:34;;;;;;;14.67;11.90;;;0.50;99.90;;;;;;5023972;28;20256;-93
2021/01/17 08:17:10;;;;;;;15.07;11.60;;;0.50;99.90;;;;;;5026547;28;20210;-93
2021/01/17 08:19:38;;;;;;;14.70;12.23;;;0.60;99.90;;;;;;5016481;28;20217;-92
2021/01/17 08:22:16;;;;;;;14.27;11.90;;;0.60;99.90;;;;;;5024695;28;20771;-93
2021/01/17 08:24:46;;;;;;;16.63;12.63;;;0.60;99.90;;;;;;5023654;28;20185;-93
2021/01/17 08:27:30;;;;;;;18.87;12.63;;;0.70;99.90;;;;;;5023835;28;20216;-91
2021/01/17 08:30:08;;;;;;;16.30;11.27;;;0.70;99.90;;;;;;5023249;28;20202;-92
2021/01/17 08:32:40;;;;;;;14.83;12.10;;;0.70;99.90;;;;;;5022718;28;20213;-93
2021/01/17 08:35:17;;;;;;;16.00;13.30;;;0.70;99.90;;;;;;5023665;28;20188;-93
2021/01/17 08:38:10;;;;;;;17.73;13.37;;;0.70;99.90;;;;;;5002630;28;20277;-89
2021/01/17 08:40:36;;;;;;;15.30;12.33;;;0.80;99.90;;;;;;5005421;28;20193;-91
2021/01/17 08:43:09;;;;;;;15.60;12.67;;;0.70;99.90;;;;;;5012129;28;20193;-91
2021/01/17 08:45:40;;;;;;;14.07;11.60;;;0.80;99.90;;;;;;5024947;28;20193;-90
2021/01/17 08:48:18;;;;;;;15.33;12.23;;;1.10;99.90;;;;;;5026231;28;20737;-93
2021/01/17 08:50:45;;;;;;;14.23;12.00;;;1.00;99.90;;;;;;5023361;28;20205;-93
2021/01/17 08:53:31;;;;;;;17.50;13.80;;;1.00;99.90;;;;;;5023704;28;20190;-93
2021/01/17 08:56:14;;;;;;;14.87;11.47;;;1.00;99.90;;;;;;5003660;28;20182;-93
2021/01/17 08:58:44;;;;;;;15.27;11.90;;;0.90;99.90;;;;;;5023579;28;20248;-93
2021/01/17 09:01:11;;;;;;;14.60;11.67;;;0.90;99.90;;;;;;5023690;28;20188;-92
2021/01/17 09:03:48;;;;;;;15.90;12.63;;;0.90;99.90;;;;;;5024068;28;20213;-92
2021/01/17 09:06:19;;;;;;;15.20;12.00;;;1.00;99.90;;;;;;5020330;28;20552;-93
2021/01/17 09:08:48;;;;;;;15.57;11.93;;;1.00;99.90;;;;;;5024127;28;20212;-92
2021/01/17 09:11:31;;;;;;;15.23;11.77;;;1.00;99.90;;;;;;5022401;28;20186;-94
2021/01/17 09:14:21;;;;;;;14.20;11.60;;;1.00;99.90;;;;;;5025837;28;20193;-92
2021/01/17 09:16:46;;;;;;;16.03;11.53;;;1.10;99.90;;;;;;5024946;28;20201;-92
2021/01/17 09:19:13;;;;;;;14.93;11.60;;;1.00;99.90;;;;;;5022182;28;20209;-92
2021/01/17 09:21:39;;;;;;;14.17;11.63;;;1.10;99.90;;;;;;5024594;28;20221;-91
2021/01/17 09:24:07;;;;;;;14.23;11.70;;;1.00;99.90;;;;;;5007793;28;20193;-92
2021/01/17 09:26:33;;;;;;;14.83;11.70;;;1.00;99.90;;;;;;5022848;28;20185;-92
2021/01/17 09:28:59;;;;;;;15.67;11.70;;;0.90;99.90;;;;;;5024285;28;20259;-92
2021/01/17 09:31:27;;;;;;;14.93;11.70;;;1.00;99.90;;;;;;5023325;28;20572;-93
2021/01/17 09:33:54;;;;;;;14.93;12.80;;;1.00;99.90;;;;;;5024586;28;20181;-92
2021/01/17 09:36:24;;;;;;;17.40;12.60;;;1.00;99.90;;;;;;5022130;28;20232;-92
2021/01/17 09:38:50;;;;;;;14.70;11.40;;;1.10;99.90;;;;;;5022568;28;20214;-92
2021/01/17 09:41:26;;;;;;;13.97;10.87;;;1.00;99.90;;;;;;5020714;28;20188;-91
2021/01/17 09:43:52;;;;;;;13.80;11.97;;;1.00;99.90;;;;;;5005139;28;20181;-93
2021/01/17 09:46:19;;;;;;;13.57;11.50;;;1.00;99.90;;;;;;5020745;28;20178;-92
2021/01/17 09:48:54;;;;;;;17.67;12.03;;;0.90;99.90;;;;;;5022097;28;20292;-90
2021/01/17 09:51:21;;;;;;;14.17;11.07;;;1.00;99.90;;;;;;5003641;28;20195;-92
2021/01/17 09:53:47;;;;;;;18.00;13.37;;;1.10;99.90;;;;;;5022734;28;20318;-92
2021/01/17 09:56:12;;;;;;;15.20;12.50;;;1.20;99.90;;;;;;5006174;28;20850;-92
2021/01/17 09:58:38;;;;;;;15.23;11.93;;;1.30;99.90;;;;;;5005855;28;20590;-92
2021/01/17 10:01:04;;;;;;;14.70;11.70;;;1.30;99.90;;;;;;5020551;28;20182;-93
2021/01/17 10:03:32;;;;;;;16.33;12.63;;;1.20;99.90;;;;;;5024997;28;20232;-93
2021/01/17 10:05:57;;;;;;;14.07;10.77;;;1.20;99.90;;;;;;5007232;28;20197;-93
2021/01/17 10:08:27;;;;;;;11.97;10.67;;;1.30;99.90;;;;;;5004426;28;20190;-93
2021/01/17 10:10:53;;;;;;;15.17;11.43;;;1.30;99.90;;;;;;5006667;28;20220;-93
2021/01/17 10:13:19;;;;;;;13.97;10.53;;;1.20;99.90;;;;;;5030367;28;20181;-93
2021/01/17 10:15:47;;;;;;;14.80;9.70;;;1.30;99.90;;;;;;5030423;28;20190;-94
2021/01/17 10:18:13;;;;;;;13.13;10.90;;;1.30;99.90;;;;;;5023232;28;20201;-94
2021/01/17 10:20:39;;;;;;;12.53;10.47;;;1.30;99.90;;;;;;5037441;28;20278;-93
2021/01/17 10:23:12;;;;;;;11.50;10.07;;;1.30;99.90;;;;;;5026460;28;20220;-93
2021/01/17 10:25:38;;;;;;;14.20;10.47;;;1.30;99.90;;;;;;5043142;28;20166;-93
2021/01/17 10:28:09;;;;;;;12.13;10.13;;;1.20;99.90;;;;;;5026402;28;20283;-93
2021/01/17 10:30:37;;;;;;;13.57;11.37;;;1.10;99.90;;;;;;5043685;28;20216;-93
2021/01/17 10:33:04;;;;;;;14.10;11.20;;;1.10;99.90;;;;;;5044142;28;20189;-93
2021/01/17 10:35:39;;;;;;;11.83;10.37;;;1.20;99.90;;;;;;5044153;28;20184;-93
2021/01/17 10:38:06;;;;;;;12.97;10.97;;;1.20;99.90;;;;;;5038539;28;20220;-92
2021/01/17 10:40:33;;;;;;;13.57;10.40;;;1.20;99.90;;;;;;5019424;28;20201;-92
2021/01/17 10:43:08;;;;;;;13.83;11.77;;;1.30;99.90;;;;;;5022546;28;20189;-93
2021/01/17 10:45:38;;;;;;;14.70;11.10;;;1.40;99.90;;;;;;5022078;28;20640;-93
2021/01/17 10:48:12;;;;;;;13.53;11.83;;;1.40;99.90;;;;;;5021066;28;20553;-93
2021/01/17 10:50:43;;;;;;;13.60;11.50;;;1.50;99.90;;;;;;5024103;28;20247;-89
2021/01/17 10:53:35;;;;;;;12.87;11.07;;;1.50;99.90;;;;;;5024857;28;20213;-93
2021/01/17 10:56:01;;;;;;;14.10;9.63;;;1.60;99.90;;;;;;5021863;28;20177;-92
2021/01/17 10:58:35;;;;;;;13.77;11.80;;;1.60;99.90;;;;;;5023716;28;20214;-93
2021/01/17 11:01:01;;;;;;;13.63;11.23;;;1.40;99.90;;;;;;5022262;28;20178;-93
2021/01/17 11:03:35;;;;;;;13.03;10.93;;;1.50;99.90;;;;;;5024600;28;20182;-93
2021/01/17 11:06:10;;;;;;;11.73;10.10;;;1.40;99.90;;;;;;5024360;28;20208;-92
2021/01/17 11:08:47;;;;;;;12.00;10.23;;;1.40;99.90;;;;;;5024778;28;20217;-92
2021/01/17 11:11:16;;;;;;;11.87;10.57;;;1.40;99.90;;;;;;5021842;28;20217;-92
2021/01/17 11:13:42;;;;;;;12.20;10.83;;;1.40;99.90;;;;;;5026410;28;20185;-92
2021/01/17 11:16:09;;;;;;;13.10;10.47;;;1.40;99.90;;;;;;5041256;28;20181;-92
2021/01/17 11:18:36;;;;;;;12.93;10.77;;;1.50;99.90;;;;;;5040978;28;20209;-92
2021/01/17 11:21:03;;;;;;;10.60;9.23;;;1.40;99.90;;;;;;5037433;28;20185;-93
2021/01/17 11:23:30;;;;;;;10.40;9.20;;;1.40;99.90;;;;;;5021628;28;20177;-93
2021/01/17 11:26:06;;;;;;;11.17;9.77;;;1.50;99.90;;;;;;5019005;28;20190;-92
2021/01/17 11:28:32;;;;;;;10.30;9.23;;;1.60;99.90;;;;;;5019745;28;20236;-93
2021/01/17 11:31:17;;;;;;;10.87;9.00;;;1.50;99.90;;;;;;5025754;28;20232;-92
2021/01/17 11:33:44;;;;;;;9.93;8.27;;;1.60;99.90;;;;;;5025564;28;20688;-93
2021/01/17 11:36:10;;;;;;;9.83;8.83;;;1.60;99.90;;;;;;5010294;28;20193;-92
2021/01/17 11:38:50;;;;;;;9.30;8.40;;;1.60;99.90;;;;;;5024643;28;20225;-92
2021/01/17 11:41:18;;;;;;;8.80;7.90;;;1.60;99.90;;;;;;5009214;28;20381;-92
2021/01/17 11:43:45;;;;;;;9.93;8.80;;;1.50;99.90;;;;;;5025309;28;20273;-92
2021/01/17 11:46:13;;;;;;;9.17;7.77;;;1.50;99.90;;;;;;5033684;28;20654;-91
2021/01/17 11:48:39;;;;;;;9.13;8.20;;;1.50;99.90;;;;;;5042764;28;20209;-92
2021/01/17 11:51:07;;;;;;;9.73;8.47;;;1.30;99.90;;;;;;5034367;28;20193;-91
2021/01/17 11:53:33;;;;;;;9.00;8.10;;;1.20;99.90;;;;;;5039998;28;20185;-91
2021/01/17 11:55:59;;;;;;;10.83;9.00;;;1.30;99.90;;;;;;5023438;28;20193;-91
2021/01/17 11:58:26;;;;;;;9.90;7.97;;;1.40;99.90;;;;;;5021211;28;20232;-91
2021/01/17 12:00:57;;;;;;;10.77;8.50;;;1.50;99.90;;;;;;5022735;28;20216;-92
2021/01/17 12:03:40;;;;;;;9.40;7.60;;;1.50;99.90;;;;;;5004280;28;20266;-92
2021/01/17 12:06:19;;;;;;;8.97;7.93;;;1.40;99.90;;;;;;5024344;28;20180;-92
2021/01/17 12:08:50;;;;;;;11.53;8.50;;;1.40;99.90;;;;;;5023331;28;20205;-92
2021/01/17 12:11:31;;;;;;;9.37;8.40;;;1.30;99.90;;;;;;5003862;28;20178;-92
2021/01/17 12:13:57;;;;;;;9.07;7.43;;;1.40;99.90;;;;;;5017004;28;20189;-91
2021/01/17 12:16:31;;;;;;;9.93;8.20;;;1.40;99.90;;;;;;5023024;28;20204;-92
2021/01/17 12:18:57;;;;;;;9.10;7.90;;;1.30;99.90;;;;;;5022607;28;20221;-92
2021/01/17 12:21:28;;;;;;;8.40;7.53;;;1.30;99.90;;;;;;5020588;28;20182;-91
2021/01/17 12:23:55;;;;;;;8.60;7.63;;;1.30;99.90;;;;;;5020585;28;20188;-91
2021/01/17 12:26:21;;;;;;;8.83;7.70;;;1.30;99.90;;;;;;5035822;28;20204;-91
2021/01/17 12:28:47;;;;;;;9.73;8.27;;;1.30;99.90;;;;;;5041837;28;20578;-92
2021/01/17 12:31:14;;;;;;;10.77;8.63;;;1.40;99.90;;;;;;5023183;28;20185;-92
2021/01/17 12:33:40;;;;;;;10.70;9.00;;;1.20;99.90;;;;;;5019434;28;20296;-91
2021/01/17 12:36:07;;;;;;;13.13;10.40;;;1.30;99.90;;;;;;5019458;28;20201;-90
2021/01/17 12:38:34;;;;;;;13.37;11.33;;;1.20;99.90;;;;;;5015153;28;20311;-92
2021/01/17 12:41:00;;;;;;;8.97;8.07;;;1.20;99.90;;;;;;5015115;28;20284;-90
2021/01/17 12:43:26;;;;;;;14.20;11.33;;;1.20;99.90;;;;;;5017165;28;20219;-91
2021/01/17 12:45:51;;;;;;;12.77;9.93;;;1.20;99.90;;;;;;5020729;28;20264;-90
2021/01/17 12:48:17;;;;;;;10.17;9.10;;;1.30;99.90;;;;;;5018763;28;20312;-91
2021/01/17 12:50:42;;;;;;;10.17;9.03;;;1.30;99.90;;;;;;5016683;28;20200;-90
2021/01/17 12:53:08;;;;;;;10.40;8.63;;;1.20;99.90;;;;;;5020946;28;20200;-91